Time;durP1;ratioP1;P1;durP2;ratioP2;P2;SDS_P1;SDS_P2;PMS_P1;PMS_P2;Temp;Humidity;BMP_temperature;BMP_pressure;BME280_temperature;BME280_humidity;BME280_pressure;Samples;Min_cycle;Max_cycle;Signal;HPM_P1;HPM_P2
2022/06/13 00:00:29;;;;;;;0.50;0.50;;;17.10;99.90;;;;;;5056453;28;20468;-80
2022/06/13 00:02:58;;;;;;;0.80;0.70;;;17.10;99.90;;;;;;5055494;28;21023;-80
2022/06/13 00:05:24;;;;;;;1.40;0.90;;;17.10;99.90;;;;;;5055741;28;20477;-80
2022/06/13 00:07:51;;;;;;;1.90;0.60;;;17.10;99.90;;;;;;5055485;28;20434;-80
2022/06/13 00:10:18;;;;;;;0.53;0.50;;;17.00;99.90;;;;;;5055907;28;20529;-80
2022/06/13 00:12:45;;;;;;;0.50;0.40;;;17.00;99.90;;;;;;5055690;28;20453;-80
2022/06/13 00:15:14;;;;;;;0.73;0.73;;;17.00;99.90;;;;;;5055779;28;20462;-80
2022/06/13 00:17:41;;;;;;;0.60;0.50;;;17.00;99.90;;;;;;5055346;28;20943;-80
2022/06/13 00:20:10;;;;;;;0.97;0.60;;;17.00;99.90;;;;;;5055500;28;20449;-80
2022/06/13 00:22:37;;;;;;;1.13;1.13;;;17.00;99.90;;;;;;5055390;28;20477;-80
2022/06/13 00:25:04;;;;;;;0.50;0.50;;;16.90;99.90;;;;;;5055082;28;20458;-80
2022/06/13 00:27:31;;;;;;;0.90;0.90;;;17.00;99.90;;;;;;5055017;28;20493;-80
2022/06/13 00:29:58;;;;;;;4.00;0.90;;;17.00;99.90;;;;;;5055566;28;20456;-80
2022/06/13 00:32:25;;;;;;;0.30;0.30;;;17.00;99.90;;;;;;5054992;28;20937;-80
2022/06/13 00:34:52;;;;;;;1.23;0.70;;;17.00;99.90;;;;;;5055163;28;20469;-80
2022/06/13 00:37:20;;;;;;;0.80;0.80;;;17.00;99.90;;;;;;5055233;28;20450;-80
2022/06/13 00:39:46;;;;;;;0.60;0.60;;;17.00;99.90;;;;;;5054865;28;20937;-80
2022/06/13 00:42:17;;;;;;;0.90;0.67;;;17.00;99.90;;;;;;5054683;28;20849;-80
2022/06/13 00:45:07;;;;;;;0.40;0.40;;;17.00;99.90;;;;;;5054724;28;20868;-80
2022/06/13 00:47:34;;;;;;;0.47;0.47;;;17.10;99.90;;;;;;5054920;28;20914;-80
2022/06/13 00:50:04;;;;;;;0.63;0.50;;;17.00;99.90;;;;;;5054634;28;20446;-80
2022/06/13 00:52:38;;;;;;;0.50;0.50;;;17.00;99.90;;;;;;5054967;28;20430;-80
2022/06/13 00:55:06;;;;;;;0.60;0.60;;;17.10;99.90;;;;;;5054704;28;20449;-80
2022/06/13 00:57:33;;;;;;;0.43;0.43;;;17.00;99.90;;;;;;5053663;28;20446;-80
2022/06/13 01:00:07;;;;;;;0.53;0.50;;;17.00;99.90;;;;;;5054779;28;20452;-80
2022/06/13 01:02:34;;;;;;;0.70;0.70;;;17.00;99.90;;;;;;5054707;28;20467;-80
2022/06/13 01:05:01;;;;;;;0.90;0.50;;;17.00;99.90;;;;;;5054600;28;20473;-81
2022/06/13 01:07:29;;;;;;;0.60;0.60;;;17.00;99.90;;;;;;5054591;28;20449;-80
2022/06/13 01:12:42;;;;;;;0.60;0.43;;;17.00;99.90;;;;;;5054583;28;20429;-80
2022/06/13 01:15:23;;;;;;;0.43;0.40;;;17.00;99.90;;;;;;5054391;28;20470;-80
2022/06/13 01:18:03;;;;;;;0.40;0.40;;;17.00;99.90;;;;;;5054436;28;20780;-80
2022/06/13 01:20:45;;;;;;;0.50;0.43;;;17.00;99.90;;;;;;5054200;28;20418;-80
2022/06/13 01:23:46;;;;;;;2.60;1.03;;;17.00;99.90;;;;;;5054222;28;20465;-80
2022/06/13 01:26:32;;;;;;;0.80;0.77;;;16.90;99.90;;;;;;5054079;28;20504;-80
2022/06/13 01:29:17;;;;;;;0.50;0.50;;;16.90;99.90;;;;;;5054197;28;20455;-80
2022/06/13 01:31:52;;;;;;;0.47;0.43;;;16.90;99.90;;;;;;5054488;28;20410;-80
2022/06/13 01:34:26;;;;;;;0.40;0.40;;;17.00;99.90;;;;;;5054081;28;20473;-81
2022/06/13 01:37:07;;;;;;;0.50;0.50;;;17.00;99.90;;;;;;5054095;28;20441;-80
2022/06/13 01:39:44;;;;;;;0.83;0.67;;;17.00;99.90;;;;;;5053759;28;20806;-80
2022/06/13 01:42:17;;;;;;;2.40;0.63;;;17.10;99.90;;;;;;5053934;28;20461;-80
2022/06/13 01:44:54;;;;;;;0.50;0.50;;;17.00;99.90;;;;;;5053919;28;20469;-80
2022/06/13 01:47:33;;;;;;;0.50;0.50;;;17.00;99.90;;;;;;5053940;28;20433;-80
2022/06/13 01:50:06;;;;;;;0.63;0.63;;;17.00;99.90;;;;;;5053866;28;20446;-80
2022/06/13 01:52:45;;;;;;;0.57;0.47;;;16.90;99.90;;;;;;5053559;28;20430;-80
2022/06/13 01:55:22;;;;;;;0.50;0.40;;;16.90;99.90;;;;;;5053726;28;20466;-80
2022/06/13 01:57:53;;;;;;;0.50;0.50;;;16.90;99.90;;;;;;5054441;28;20453;-80
2022/06/13 02:00:25;;;;;;;0.50;0.50;;;16.90;99.90;;;;;;5053417;28;20437;-80
2022/06/13 02:02:59;;;;;;;0.70;0.70;;;16.80;99.90;;;;;;5053595;28;20527;-80
2022/06/13 02:05:32;;;;;;;0.63;0.63;;;16.80;99.90;;;;;;5053268;28;20980;-81
2022/06/13 02:08:06;;;;;;;0.40;0.40;;;16.80;99.90;;;;;;5053170;28;20442;-80
2022/06/13 02:10:38;;;;;;;0.50;0.50;;;16.80;99.90;;;;;;5053547;28;20434;-80
2022/06/13 02:13:07;;;;;;;0.50;0.50;;;16.80;99.90;;;;;;5053506;28;20430;-80
2022/06/13 02:15:39;;;;;;;2.80;0.50;;;16.90;99.90;;;;;;5053083;28;20471;-80
2022/06/13 02:18:13;;;;;;;0.70;0.70;;;16.90;99.90;;;;;;5053464;28;20445;-80
2022/06/13 02:20:44;;;;;;;3.00;0.47;;;16.90;99.90;;;;;;5053438;28;20426;-80
2022/06/13 02:23:15;;;;;;;0.70;0.70;;;16.80;99.90;;;;;;5053460;28;20481;-80
2022/06/13 02:25:45;;;;;;;0.70;0.57;;;16.90;99.90;;;;;;5053388;28;20453;-80
2022/06/13 02:28:18;;;;;;;0.90;0.70;;;16.90;99.90;;;;;;5053346;28;20434;-80
2022/06/13 02:30:50;;;;;;;0.60;0.60;;;16.90;99.90;;;;;;5053347;28;20431;-80
2022/06/13 02:33:23;;;;;;;2.40;0.50;;;16.90;99.90;;;;;;5052938;28;20428;-80
2022/06/13 02:35:56;;;;;;;0.77;0.57;;;16.90;99.90;;;;;;5053287;28;20496;-80
2022/06/13 02:38:26;;;;;;;0.60;0.60;;;16.90;99.90;;;;;;5053247;28;20434;-80
2022/06/13 02:40:57;;;;;;;0.70;0.70;;;16.90;99.90;;;;;;5053203;28;20431;-80
2022/06/13 02:43:30;;;;;;;0.53;0.53;;;16.90;99.90;;;;;;5053101;28;20458;-80
2022/06/13 02:46:02;;;;;;;0.60;0.50;;;16.90;99.90;;;;;;5053254;28;20414;-80
2022/06/13 02:48:37;;;;;;;0.60;0.47;;;16.90;99.90;;;;;;5052865;28;20946;-80
2022/06/13 02:51:09;;;;;;;0.50;0.50;;;16.90;99.90;;;;;;5052842;28;20437;-80
2022/06/13 02:53:41;;;;;;;0.80;0.60;;;16.90;99.90;;;;;;5052935;28;20477;-80
2022/06/13 02:56:11;;;;;;;0.60;0.57;;;16.90;99.90;;;;;;5053111;28;20426;-80
2022/06/13 02:58:53;;;;;;;0.73;0.60;;;16.90;99.90;;;;;;5053157;28;20438;-80
2022/06/13 03:01:25;;;;;;;0.90;0.70;;;16.80;99.90;;;;;;5053022;28;20429;-80
2022/06/13 03:04:02;;;;;;;0.90;0.60;;;16.80;99.90;;;;;;5052854;28;20489;-80
2022/06/13 03:06:35;;;;;;;1.23;0.47;;;16.80;99.90;;;;;;5052706;28;20440;-80
2022/06/13 03:09:05;;;;;;;0.50;0.50;;;16.70;99.90;;;;;;5052932;28;20445;-80
2022/06/13 03:11:45;;;;;;;0.37;0.37;;;16.70;99.90;;;;;;5053787;28;20441;-80
2022/06/13 03:14:26;;;;;;;1.00;0.60;;;16.60;99.90;;;;;;5053541;28;20474;-80
2022/06/13 03:16:57;;;;;;;0.40;0.40;;;16.60;99.90;;;;;;5053047;28;20438;-80
2022/06/13 03:19:36;;;;;;;0.77;0.50;;;16.60;99.90;;;;;;5052903;28;20426;-80
2022/06/13 03:22:08;;;;;;;0.73;0.73;;;16.60;99.90;;;;;;5056669;28;20437;-80
2022/06/13 03:24:42;;;;;;;0.57;0.47;;;16.60;99.90;;;;;;5056402;28;20477;-80
2022/06/13 03:27:14;;;;;;;0.53;0.50;;;16.50;99.90;;;;;;5056390;28;20485;-80
2022/06/13 03:29:46;;;;;;;0.47;0.47;;;16.50;99.90;;;;;;5056304;28;20441;-80
2022/06/13 03:32:17;;;;;;;3.67;0.63;;;16.40;99.90;;;;;;5056689;28;20426;-80
2022/06/13 03:34:50;;;;;;;0.40;0.40;;;16.40;99.90;;;;;;5056425;28;20469;-81
2022/06/13 03:37:21;;;;;;;0.87;0.60;;;16.40;99.90;;;;;;5056438;28;20774;-81
2022/06/13 03:39:52;;;;;;;0.70;0.70;;;16.30;99.90;;;;;;5056352;28;20433;-80
2022/06/13 03:42:25;;;;;;;0.80;0.50;;;16.30;99.90;;;;;;5056239;28;20799;-80
2022/06/13 03:44:57;;;;;;;0.47;0.40;;;16.30;99.90;;;;;;5055931;28;20446;-80
2022/06/13 03:47:29;;;;;;;0.50;0.40;;;16.20;99.90;;;;;;5056215;28;20433;-80
2022/06/13 03:50:02;;;;;;;1.03;0.50;;;16.20;99.90;;;;;;5055926;28;20414;-80
2022/06/13 03:52:35;;;;;;;0.63;0.60;;;16.20;99.90;;;;;;5056135;28;20426;-80
2022/06/13 03:55:06;;;;;;;10.43;0.70;;;16.20;99.90;;;;;;5056228;28;20469;-80
2022/06/13 03:57:37;;;;;;;0.50;0.50;;;16.20;99.90;;;;;;5056305;28;20428;-80
2022/06/13 04:00:10;;;;;;;0.67;0.40;;;16.20;99.90;;;;;;5055686;28;20426;-80
2022/06/13 04:02:39;;;;;;;0.40;0.40;;;16.20;99.90;;;;;;5055877;28;20425;-80
2022/06/13 04:05:16;;;;;;;1.23;0.50;;;16.10;99.90;;;;;;5055462;28;20843;-81
2022/06/13 04:07:44;;;;;;;0.50;0.40;;;16.10;99.90;;;;;;5055538;28;21016;-81
2022/06/13 04:10:13;;;;;;;0.40;0.40;;;16.00;99.90;;;;;;5055710;28;20452;-81
2022/06/13 04:13:08;;;;;;;0.50;0.50;;;15.90;99.90;;;;;;5055654;28;20450;-81
2022/06/13 04:16:05;;;;;;;0.40;0.40;;;15.90;99.90;;;;;;5055714;28;20433;-81
2022/06/13 04:18:50;;;;;;;3.03;0.50;;;15.90;99.90;;;;;;5053422;28;20957;-81
2022/06/13 04:21:27;;;;;;;1.03;0.57;;;15.90;99.90;;;;;;5055586;28;20433;-81
2022/06/13 04:24:16;;;;;;;0.60;0.60;;;15.90;99.90;;;;;;5055333;28;20501;-81
2022/06/13 04:26:48;;;;;;;0.90;0.80;;;15.90;99.90;;;;;;5055245;28;20488;-81
2022/06/13 04:29:23;;;;;;;0.50;0.50;;;15.90;99.90;;;;;;5055427;28;20434;-80
2022/06/13 04:31:53;;;;;;;0.50;0.50;;;15.80;99.90;;;;;;5055137;28;20438;-81
2022/06/13 04:34:25;;;;;;;0.47;0.47;;;15.80;99.90;;;;;;5055540;28;20469;-81
2022/06/13 04:36:54;;;;;;;0.90;0.70;;;15.80;99.90;;;;;;5055520;28;20436;-81
2022/06/13 04:39:26;;;;;;;0.60;0.60;;;15.70;99.90;;;;;;5055161;28;20446;-81
2022/06/13 04:41:56;;;;;;;0.40;0.40;;;15.70;99.90;;;;;;5054963;28;20512;-81
2022/06/13 04:44:27;;;;;;;0.60;0.60;;;15.70;99.90;;;;;;5054952;28;20481;-81
2022/06/13 04:46:56;;;;;;;0.47;0.47;;;15.70;99.90;;;;;;5054787;28;20918;-81
2022/06/13 04:49:28;;;;;;;0.83;0.50;;;15.80;99.90;;;;;;5054672;28;20933;-81
2022/06/13 04:51:58;;;;;;;0.50;0.40;;;15.90;99.90;;;;;;5054724;28;20445;-81
2022/06/13 04:54:31;;;;;;;1.17;0.60;;;15.90;99.90;;;;;;5054559;28;20454;-82
2022/06/13 04:56:59;;;;;;;1.13;0.53;;;16.00;99.90;;;;;;5054681;28;20422;-81
2022/06/13 04:59:27;;;;;;;0.50;0.50;;;15.90;99.90;;;;;;5054822;28;20446;-81
2022/06/13 05:01:55;;;;;;;0.80;0.80;;;15.90;99.90;;;;;;5054639;28;20461;-81
2022/06/13 05:04:25;;;;;;;3.70;0.87;;;15.90;99.90;;;;;;5054452;28;20497;-81
2022/06/13 05:06:55;;;;;;;0.60;0.60;;;15.90;99.90;;;;;;5054701;28;20442;-81
2022/06/13 05:09:27;;;;;;;0.70;0.70;;;15.90;99.90;;;;;;5054598;28;20457;-81
2022/06/13 05:12:04;;;;;;;3.13;0.63;;;15.90;99.90;;;;;;5054302;28;20445;-81
2022/06/13 05:14:36;;;;;;;1.17;0.80;;;15.90;99.90;;;;;;5054506;28;20522;-81
2022/06/13 05:17:21;;;;;;;0.70;0.50;;;15.90;99.90;;;;;;5054458;28;20434;-81
2022/06/13 05:19:57;;;;;;;2.37;1.20;;;16.00;99.90;;;;;;5054168;28;20434;-81
2022/06/13 05:22:45;;;;;;;0.50;0.50;;;16.10;99.90;;;;;;5054105;28;20421;-81
2022/06/13 05:25:45;;;;;;;0.50;0.50;;;16.10;99.90;;;;;;5054096;28;20477;-81
2022/06/13 05:28:13;;;;;;;1.00;0.87;;;16.10;99.90;;;;;;5053829;28;20469;-81
2022/06/13 05:30:42;;;;;;;1.43;0.60;;;16.20;99.90;;;;;;5053933;28;20831;-81
2022/06/13 05:33:11;;;;;;;1.73;1.27;;;16.20;99.90;;;;;;5053833;28;20942;-81
2022/06/13 05:35:43;;;;;;;1.13;0.70;;;16.20;99.90;;;;;;5054093;28;20458;-80
2022/06/13 05:38:14;;;;;;;0.70;0.60;;;16.30;99.90;;;;;;5054531;28;20812;-80
2022/06/13 05:40:42;;;;;;;0.60;0.60;;;16.30;99.90;;;;;;5053955;28;20980;-80
2022/06/13 05:43:11;;;;;;;0.83;0.60;;;16.40;99.90;;;;;;5053242;28;20476;-80
2022/06/13 05:45:39;;;;;;;0.80;0.57;;;16.40;99.90;;;;;;5053950;28;20445;-80
2022/06/13 05:48:11;;;;;;;0.63;0.63;;;16.50;99.90;;;;;;5053928;28;20860;-81
2022/06/13 05:50:38;;;;;;;0.87;0.60;;;16.60;99.90;;;;;;5053660;28;20418;-81
2022/06/13 05:53:05;;;;;;;0.87;0.80;;;16.70;99.90;;;;;;5053509;28;20821;-80
2022/06/13 05:55:32;;;;;;;0.53;0.53;;;16.70;99.90;;;;;;5053663;28;20503;-80
2022/06/13 05:57:59;;;;;;;0.60;0.60;;;16.80;99.90;;;;;;5053727;28;20477;-80
2022/06/13 06:00:31;;;;;;;0.50;0.50;;;16.90;99.90;;;;;;5053389;28;20933;-80
2022/06/13 06:02:58;;;;;;;0.60;0.50;;;17.00;99.90;;;;;;5053701;28;20438;-80
2022/06/13 06:05:25;;;;;;;0.47;0.47;;;17.10;99.90;;;;;;5053141;28;20496;-80
2022/06/13 06:07:52;;;;;;;0.53;0.53;;;17.30;99.90;;;;;;5053279;28;20461;-81
2022/06/13 06:10:22;;;;;;;0.50;0.50;;;17.50;99.90;;;;;;5053536;28;20450;-81
2022/06/13 06:12:48;;;;;;;0.60;0.60;;;17.70;99.90;;;;;;5053542;28;20434;-81
2022/06/13 06:15:15;;;;;;;0.70;0.70;;;18.00;99.90;;;;;;5053234;28;20458;-81
2022/06/13 06:17:43;;;;;;;3.20;0.80;;;18.30;99.90;;;;;;5053433;28;20458;-81
2022/06/13 06:20:15;;;;;;;0.73;0.57;;;18.40;99.90;;;;;;5053145;28;20457;-81
2022/06/13 06:22:42;;;;;;;0.50;0.50;;;18.80;99.90;;;;;;5053366;28;20469;-81
2022/06/13 06:25:09;;;;;;;0.80;0.60;;;19.20;99.90;;;;;;5053463;28;20493;-81
2022/06/13 06:27:36;;;;;;;0.80;0.70;;;19.60;99.90;;;;;;5053088;28;20485;-81
2022/06/13 06:30:04;;;;;;;0.90;0.63;;;19.80;99.90;;;;;;5053019;28;20460;-81
2022/06/13 06:32:31;;;;;;;1.42;0.90;;;20.30;99.90;;;;;;5053274;28;20293;-81
2022/06/13 06:34:59;;;;;;;0.85;0.85;;;20.60;99.90;;;;;;5053218;28;20233;-81
2022/06/13 06:37:26;;;;;;;0.65;0.65;;;20.90;99.90;;;;;;5053546;28;20195;-82
2022/06/13 06:39:52;;;;;;;2.25;1.17;;;20.90;99.90;;;;;;5053090;28;20204;-82
2022/06/13 06:42:19;;;;;;;0.60;0.60;;;21.10;99.90;;;;;;5053113;28;20577;-82
2022/06/13 06:44:46;;;;;;;1.15;0.90;;;21.20;99.90;;;;;;5053054;28;20234;-82
2022/06/13 06:47:13;;;;;;;0.93;0.82;;;21.30;99.90;;;;;;5053117;28;20202;-82
2022/06/13 06:49:40;;;;;;;0.60;0.60;;;21.30;99.90;;;;;;5053283;28;20206;-82
2022/06/13 06:52:09;;;;;;;2.00;1.00;;;21.40;99.90;;;;;;5052996;28;20570;-82
2022/06/13 07:00:06;;;;;;;1.50;1.15;;;21.70;99.90;;;;;;5057446;28;20586;-82
2022/06/13 07:02:33;;;;;;;1.20;0.95;;;21.70;99.90;;;;;;5057047;28;20650;-82
2022/06/13 07:05:03;;;;;;;0.70;0.70;;;21.90;99.90;;;;;;5056583;28;20230;-82
2022/06/13 07:07:31;;;;;;;1.42;0.80;;;21.80;99.90;;;;;;5056956;28;20206;-83
2022/06/13 07:09:58;;;;;;;2.13;0.80;;;21.50;99.90;;;;;;5056656;28;20635;-82
2022/06/13 07:12:25;;;;;;;0.57;0.57;;;21.40;99.90;;;;;;5056635;28;20662;-83
2022/06/13 07:14:51;;;;;;;0.70;0.70;;;21.40;99.90;;;;;;5056643;28;20222;-82
2022/06/13 07:17:20;;;;;;;1.03;0.63;;;21.30;99.90;;;;;;5056473;28;20690;-83
2022/06/13 07:19:47;;;;;;;0.83;0.80;;;21.30;99.90;;;;;;5056807;28;20460;-83
2022/06/13 07:22:17;;;;;;;0.60;0.60;;;21.30;99.90;;;;;;5056387;28;20637;-83
2022/06/13 07:24:45;;;;;;;0.93;0.80;;;21.30;99.90;;;;;;5056527;28;20227;-83
2022/06/13 07:27:13;;;;;;;1.53;0.63;;;21.30;99.90;;;;;;5056514;28;20234;-81
2022/06/13 07:29:40;;;;;;;2.20;0.77;;;21.30;99.90;;;;;;5057242;28;20206;-81
2022/06/13 07:32:11;;;;;;;1.75;1.38;;;21.40;99.90;;;;;;5056312;28;20198;-81
2022/06/13 07:34:39;;;;;;;1.00;0.90;;;21.60;99.90;;;;;;5056406;28;20226;-81
2022/06/13 07:37:08;;;;;;;0.70;0.60;;;22.00;99.90;;;;;;5056394;28;20206;-81
2022/06/13 07:39:35;;;;;;;1.25;0.85;;;22.30;99.90;;;;;;5056095;28;20202;-82
2022/06/13 07:42:04;;;;;;;0.68;0.65;;;22.70;99.90;;;;;;5056477;28;20217;-81
2022/06/13 07:44:35;;;;;;;0.55;0.55;;;23.10;99.90;;;;;;5055936;28;20237;-81
2022/06/13 07:47:02;;;;;;;1.40;0.60;;;23.50;99.90;;;;;;5056486;28;20203;-81
2022/06/13 07:49:28;;;;;;;0.68;0.68;;;24.20;99.90;;;;;;5056161;28;20207;-81
2022/06/13 07:51:56;;;;;;;0.80;0.77;;;24.50;99.90;;;;;;5056125;28;20212;-81
2022/06/13 07:54:22;;;;;;;1.10;0.80;;;25.00;99.90;;;;;;5055652;28;20635;-82
2022/06/13 07:56:49;;;;;;;0.55;0.55;;;25.20;99.90;;;;;;5055725;28;20823;-81
2022/06/13 07:59:20;;;;;;;1.15;0.88;;;25.60;99.90;;;;;;5055971;28;20206;-81
2022/06/13 08:01:47;;;;;;;0.60;0.60;;;25.70;99.90;;;;;;5056030;28;20194;-81
2022/06/13 08:04:14;;;;;;;0.70;0.70;;;25.80;99.90;;;;;;5055481;28;20685;-81
2022/06/13 08:06:42;;;;;;;1.35;0.80;;;25.70;99.90;;;;;;5054976;28;20325;-81
2022/06/13 08:09:09;;;;;;;1.15;0.77;;;25.60;99.00;;;;;;5055734;28;20209;-81
2022/06/13 08:11:38;;;;;;;2.05;0.90;;;25.70;99.30;;;;;;5055661;28;20206;-81
2022/06/13 08:14:06;;;;;;;0.70;0.70;;;26.00;98.40;;;;;;5055696;28;20219;-81
2022/06/13 08:16:35;;;;;;;1.33;0.70;;;26.20;97.60;;;;;;5055721;28;20206;-82
2022/06/13 08:19:03;;;;;;;1.00;1.00;;;26.70;97.70;;;;;;5055478;28;20694;-81
2022/06/13 08:21:30;;;;;;;0.85;0.68;;;27.00;97.10;;;;;;5056011;28;20207;-81
2022/06/13 08:23:56;;;;;;;0.60;0.60;;;27.10;95.10;;;;;;5055466;28;20226;-81
2022/06/13 08:26:23;;;;;;;4.45;0.70;;;27.30;94.10;;;;;;5055501;28;20696;-82
2022/06/13 08:28:51;;;;;;;1.10;0.88;;;27.80;93.50;;;;;;5055461;28;20217;-82
2022/06/13 08:31:20;;;;;;;0.70;0.70;;;28.20;91.90;;;;;;5055663;28;20201;-81
2022/06/13 08:33:48;;;;;;;1.40;0.90;;;27.90;89.00;;;;;;5055308;28;20226;-81
2022/06/13 08:36:16;;;;;;;1.52;0.80;;;27.60;88.70;;;;;;5055106;28;20209;-81
2022/06/13 08:38:43;;;;;;;1.15;0.80;;;27.40;90.70;;;;;;5055257;28;20209;-81
2022/06/13 08:41:22;;;;;;;1.10;0.77;;;27.20;89.30;;;;;;5055284;28;20216;-81
2022/06/13 08:44:31;;;;;;;0.80;0.80;;;27.10;90.90;;;;;;5054954;28;20222;-81
2022/06/13 08:47:06;;;;;;;1.05;0.95;;;26.90;91.60;;;;;;5030512;28;20203;-82
2022/06/13 08:49:41;;;;;;;1.58;0.63;;;27.10;89.00;;;;;;5055313;28;20210;-82
2022/06/13 08:52:19;;;;;;;0.60;0.60;;;27.40;90.00;;;;;;5055057;28;20188;-82
2022/06/13 08:54:52;;;;;;;0.85;0.85;;;27.90;88.90;;;;;;5054768;28;20226;-81
2022/06/13 08:57:20;;;;;;;1.70;0.98;;;28.40;85.00;;;;;;5054931;28;20176;-82
2022/06/13 08:59:51;;;;;;;0.90;0.90;;;28.20;82.70;;;;;;5054990;28;20209;-81
2022/06/13 09:02:22;;;;;;;0.93;0.93;;;27.80;84.50;;;;;;5055464;28;20183;-81
2022/06/13 09:05:02;;;;;;;2.05;0.73;;;27.50;83.80;;;;;;5055156;28;20291;-81
2022/06/13 09:07:34;;;;;;;3.10;1.00;;;26.80;85.40;;;;;;5054816;28;20574;-82
2022/06/13 09:10:05;;;;;;;0.70;0.60;;;26.30;85.90;;;;;;5054999;28;20283;-82
2022/06/13 09:12:38;;;;;;;0.80;0.80;;;25.90;88.50;;;;;;5054740;28;20187;-82
2022/06/13 09:15:09;;;;;;;1.05;0.70;;;25.30;88.40;;;;;;5054303;28;20227;-81
2022/06/13 09:17:46;;;;;;;1.30;0.70;;;24.90;90.10;;;;;;5053317;28;20202;-82
2022/06/13 09:20:20;;;;;;;1.35;0.60;;;24.70;91.20;;;;;;5054266;28;20202;-82
2022/06/13 09:22:59;;;;;;;0.70;0.68;;;24.70;90.30;;;;;;5055138;28;20642;-81
2022/06/13 09:25:35;;;;;;;1.75;0.60;;;24.80;91.70;;;;;;5053961;28;20225;-82
2022/06/13 09:28:07;;;;;;;0.93;0.70;;;24.70;91.20;;;;;;5054003;28;20226;-81
2022/06/13 09:30:37;;;;;;;0.60;0.60;;;24.80;91.30;;;;;;5054337;28;20194;-82
2022/06/13 09:33:09;;;;;;;0.80;0.80;;;24.70;90.80;;;;;;5054177;28;20203;-81
2022/06/13 09:35:46;;;;;;;0.70;0.70;;;24.60;90.00;;;;;;5053914;28;20215;-81
2022/06/13 09:38:20;;;;;;;1.02;0.88;;;24.60;89.50;;;;;;5054183;28;20207;-81
2022/06/13 09:40:59;;;;;;;0.82;0.60;;;24.50;90.10;;;;;;5054136;28;20194;-82
2022/06/13 09:43:40;;;;;;;0.70;0.70;;;24.40;90.50;;;;;;5053663;28;20203;-81
2022/06/13 09:46:16;;;;;;;0.50;0.50;;;24.40;90.80;;;;;;5053682;28;20218;-81
2022/06/13 09:48:55;;;;;;;1.08;0.60;;;24.20;88.80;;;;;;5053677;28;20677;-81
2022/06/13 09:51:37;;;;;;;1.10;0.60;;;24.00;88.40;;;;;;5053938;28;20198;-82
2022/06/13 09:54:11;;;;;;;1.85;0.70;;;24.00;88.50;;;;;;5054351;28;20245;-81
2022/06/13 09:56:59;;;;;;;1.02;0.52;;;23.80;87.00;;;;;;5053533;28;20665;-81
2022/06/13 09:59:41;;;;;;;0.50;0.50;;;23.90;83.50;;;;;;5053783;28;20194;-81
2022/06/13 10:02:16;;;;;;;0.68;0.68;;;23.90;81.60;;;;;;5053446;28;20650;-81
2022/06/13 10:04:53;;;;;;;0.77;0.75;;;23.90;84.20;;;;;;5053524;28;20701;-81
2022/06/13 10:07:28;;;;;;;0.50;0.50;;;23.70;89.00;;;;;;5053671;28;20194;-81
2022/06/13 10:10:03;;;;;;;0.77;0.60;;;23.70;89.10;;;;;;5053870;28;20194;-81
2022/06/13 10:12:39;;;;;;;0.70;0.60;;;23.90;89.00;;;;;;5053836;28;20260;-81
2022/06/13 10:15:34;;;;;;;0.75;0.50;;;23.90;85.40;;;;;;5053193;28;20712;-81
2022/06/13 10:18:20;;;;;;;1.00;0.60;;;24.00;86.30;;;;;;5053338;28;20183;-81
2022/06/13 10:20:53;;;;;;;0.73;0.73;;;23.90;87.00;;;;;;5053187;28;20186;-81
2022/06/13 10:23:36;;;;;;;0.60;0.52;;;23.90;86.20;;;;;;5053410;28;20249;-81
2022/06/13 10:26:11;;;;;;;2.47;0.50;;;24.00;86.90;;;;;;5052814;28;20736;-81
2022/06/13 10:29:00;;;;;;;0.80;0.80;;;24.00;83.70;;;;;;5052811;28;20635;-80
2022/06/13 10:31:40;;;;;;;0.77;0.50;;;23.90;85.10;;;;;;5053328;28;20198;-81
2022/06/13 10:34:14;;;;;;;0.50;0.50;;;23.90;86.70;;;;;;5053051;28;20721;-80
2022/06/13 10:36:50;;;;;;;0.60;0.60;;;23.90;80.60;;;;;;5053315;28;20187;-80
2022/06/13 10:39:22;;;;;;;0.50;0.50;;;24.00;85.20;;;;;;5053282;28;20193;-81
2022/06/13 10:41:53;;;;;;;0.50;0.50;;;23.90;84.30;;;;;;5053024;28;20175;-81
2022/06/13 10:44:21;;;;;;;0.95;0.60;;;23.90;82.70;;;;;;5053179;28;20589;-81
2022/06/13 10:46:51;;;;;;;2.78;0.50;;;24.00;83.70;;;;;;5053105;28;20211;-81
2022/06/13 10:49:24;;;;;;;0.77;0.50;;;24.00;79.70;;;;;;5053191;28;20190;-81
2022/06/13 10:51:55;;;;;;;0.50;0.50;;;24.10;82.40;;;;;;5053160;28;20193;-81
2022/06/13 10:54:30;;;;;;;1.15;1.15;;;24.30;82.30;;;;;;5053026;28;20227;-81
2022/06/13 10:57:03;;;;;;;0.60;0.60;;;24.80;80.00;;;;;;5052908;28;20276;-80
2022/06/13 10:59:33;;;;;;;0.50;0.50;;;25.00;77.60;;;;;;5052885;28;20221;-80
2022/06/13 11:02:03;;;;;;;0.50;0.50;;;24.90;75.90;;;;;;5053231;28;20207;-80
2022/06/13 11:04:31;;;;;;;1.13;0.70;;;24.80;77.10;;;;;;5053165;28;20223;-80
2022/06/13 11:07:01;;;;;;;0.65;0.65;;;24.90;75.70;;;;;;5052926;28;20230;-80
2022/06/13 11:09:37;;;;;;;0.68;0.50;;;25.00;76.50;;;;;;5053135;28;20658;-80
2022/06/13 11:12:14;;;;;;;1.67;0.68;;;25.20;76.50;;;;;;5052915;28;20190;-80
2022/06/13 11:23:01;;;;;;;0.40;0.40;;;24.70;76.80;;;;;;5052993;28;20268;-81
2022/06/13 11:25:31;;;;;;;1.23;0.50;;;24.60;75.90;;;;;;5052796;28;20231;-80
2022/06/13 11:28:05;;;;;;;0.70;0.70;;;24.50;75.00;;;;;;5052372;28;20238;-81
2022/06/13 11:30:40;;;;;;;0.55;0.55;;;24.20;75.60;;;;;;5052823;28;20202;-80
2022/06/13 11:33:15;;;;;;;0.52;0.50;;;23.90;77.70;;;;;;5052717;28;20273;-80
2022/06/13 11:35:43;;;;;;;0.85;0.60;;;23.80;77.70;;;;;;5052754;28;20183;-79
2022/06/13 11:38:21;;;;;;;1.08;0.80;;;23.70;76.60;;;;;;5052751;28;20202;-80
2022/06/13 11:40:58;;;;;;;0.55;0.52;;;23.80;79.90;;;;;;5053017;28;20197;-81
2022/06/13 11:43:35;;;;;;;0.50;0.50;;;23.70;81.00;;;;;;5056253;28;20187;-80
2022/06/13 11:46:04;;;;;;;0.77;0.60;;;23.70;77.20;;;;;;5056508;28;20203;-80
2022/06/13 11:48:31;;;;;;;0.85;0.50;;;23.60;78.50;;;;;;5056415;28;20202;-80
2022/06/13 11:51:02;;;;;;;2.58;0.70;;;23.70;79.40;;;;;;5056180;28;20213;-80
2022/06/13 11:53:38;;;;;;;0.60;0.60;;;23.70;77.30;;;;;;5056097;28;20586;-80
2022/06/13 11:56:11;;;;;;;0.50;0.50;;;23.60;79.70;;;;;;5056071;28;20187;-80
2022/06/13 11:58:42;;;;;;;0.60;0.60;;;23.70;78.20;;;;;;5056076;28;20210;-80
2022/06/13 12:01:19;;;;;;;0.50;0.50;;;23.70;79.60;;;;;;5055714;28;20700;-80
2022/06/13 12:03:58;;;;;;;2.42;0.55;;;23.80;77.00;;;;;;5055739;28;20226;-81
2022/06/13 12:06:26;;;;;;;2.10;0.50;;;23.90;78.00;;;;;;5055793;28;20739;-80
2022/06/13 12:09:03;;;;;;;0.50;0.50;;;24.00;78.40;;;;;;5055964;28;20202;-80
2022/06/13 12:11:31;;;;;;;0.90;0.60;;;24.00;78.90;;;;;;5055844;28;20273;-80
2022/06/13 12:14:01;;;;;;;0.60;0.60;;;24.10;76.40;;;;;;5055582;28;20234;-80
2022/06/13 12:16:38;;;;;;;0.75;0.75;;;24.10;75.30;;;;;;5055706;28;20282;-80
2022/06/13 12:19:19;;;;;;;0.90;0.90;;;24.10;75.90;;;;;;5055767;28;20191;-80
2022/06/13 12:21:53;;;;;;;0.50;0.50;;;24.00;73.20;;;;;;5055448;28;20638;-80
2022/06/13 12:24:25;;;;;;;0.80;0.60;;;24.00;77.90;;;;;;5055632;28;20233;-80
2022/06/13 12:27:04;;;;;;;0.77;0.77;;;24.00;74.60;;;;;;5055170;28;20243;-80
2022/06/13 12:29:48;;;;;;;0.82;0.82;;;23.80;72.90;;;;;;5055223;28;20191;-79
2022/06/13 12:32:20;;;;;;;1.17;0.88;;;23.60;74.80;;;;;;5055471;28;20195;-80
2022/06/13 12:34:56;;;;;;;0.73;0.68;;;23.50;76.50;;;;;;5055343;28;20227;-79
2022/06/13 12:37:32;;;;;;;2.00;0.60;;;23.40;80.10;;;;;;5055687;28;20179;-81
2022/06/13 12:40:11;;;;;;;0.95;0.60;;;23.20;77.50;;;;;;5055218;28;20182;-84
2022/06/13 12:42:51;;;;;;;0.57;0.57;;;23.10;78.10;;;;;;5055308;28;20635;-82
2022/06/13 12:45:45;;;;;;;2.10;0.60;;;23.10;79.30;;;;;;5055132;28;20594;-82
2022/06/13 12:48:25;;;;;;;0.67;0.67;;;23.10;77.20;;;;;;5055191;28;20179;-82
2022/06/13 12:51:04;;;;;;;0.57;0.57;;;23.10;78.40;;;;;;5055575;28;20190;-81
2022/06/13 12:53:52;;;;;;;0.50;0.47;;;23.10;79.60;;;;;;5055154;28;20638;-81
2022/06/13 12:56:25;;;;;;;2.40;0.63;;;23.00;79.00;;;;;;5054839;28;20553;-81
2022/06/13 12:59:14;;;;;;;1.00;0.70;;;22.90;79.50;;;;;;5055231;28;20199;-81
2022/06/13 13:01:50;;;;;;;1.60;1.00;;;22.80;79.30;;;;;;5055501;28;20182;-81
2022/06/13 13:04:52;;;;;;;0.60;0.60;;;22.80;77.30;;;;;;5054860;28;20225;-81
2022/06/13 13:07:28;;;;;;;0.50;0.50;;;22.80;77.40;;;;;;5054896;28;20210;-81
2022/06/13 13:10:25;;;;;;;0.50;0.50;;;22.80;74.70;;;;;;5054817;28;20194;-81
2022/06/13 13:13:16;;;;;;;0.50;0.50;;;22.80;74.70;;;;;;5053819;28;20205;-81
2022/06/13 13:15:54;;;;;;;0.40;0.40;;;22.70;76.00;;;;;;5053196;28;20929;-81
2022/06/13 13:18:30;;;;;;;4.73;0.70;;;22.70;75.10;;;;;;5054666;28;20209;-81
2022/06/13 13:21:01;;;;;;;0.53;0.50;;;22.60;74.10;;;;;;5054565;28;20528;-81
2022/06/13 13:23:37;;;;;;;1.23;0.50;;;22.50;74.80;;;;;;5054738;28;20449;-81
2022/06/13 13:26:19;;;;;;;0.50;0.50;;;22.50;75.80;;;;;;5053996;28;20844;-81
2022/06/13 13:28:56;;;;;;;0.40;0.40;;;22.50;75.40;;;;;;5054643;28;20441;-81
2022/06/13 13:31:32;;;;;;;0.50;0.50;;;22.50;73.20;;;;;;5054537;28;20436;-81
2022/06/13 13:34:23;;;;;;;0.50;0.50;;;22.40;74.20;;;;;;5054539;28;20297;-82